createdAt,value
2023-04-28T00:02:01.213Z,9.53
2023-04-28T00:04:28.853Z,9.52
2023-04-28T00:06:55.723Z,9.54
2023-04-28T00:09:22.080Z,9.52
2023-04-28T00:11:48.692Z,9.47
2023-04-28T00:14:15.479Z,9.46
2023-04-28T00:16:42.178Z,9.48
2023-04-28T00:19:08.660Z,9.43
2023-04-28T00:21:35.063Z,9.43
2023-04-28T00:24:01.464Z,9.43
2023-04-28T00:26:27.913Z,9.40
2023-04-28T00:28:54.256Z,9.39
2023-04-28T00:31:20.619Z,9.37
2023-04-28T00:33:47.411Z,9.36
2023-04-28T00:36:13.829Z,9.34
2023-04-28T00:38:40.262Z,9.36
2023-04-28T00:41:06.714Z,9.36
2023-04-28T00:43:44.939Z,9.36
2023-04-28T00:46:33.528Z,9.33
2023-04-28T00:49:00.110Z,9.35
2023-04-28T00:51:28.866Z,9.35
2023-04-28T00:53:56.626Z,9.37
2023-04-28T00:56:23.046Z,9.36
2023-04-28T00:58:49.506Z,9.31
2023-04-28T01:01:15.895Z,9.33
2023-04-28T01:03:42.519Z,9.34
2023-04-28T01:06:10.124Z,9.37
2023-04-28T01:08:38.050Z,9.38
2023-04-28T01:11:04.969Z,9.37
2023-04-28T01:13:31.424Z,9.34
2023-04-28T01:15:58.609Z,9.34
2023-04-28T01:18:25.734Z,9.32
2023-04-28T01:20:52.138Z,9.31
2023-04-28T01:23:18.646Z,9.30
2023-04-28T01:25:45.035Z,9.29
2023-04-28T01:28:11.691Z,9.26
2023-04-28T01:30:38.175Z,9.25
2023-04-28T01:33:04.687Z,9.24
2023-04-28T01:35:31.766Z,9.26
2023-04-28T01:37:58.209Z,9.24
2023-04-28T01:40:24.820Z,9.22
2023-04-28T01:42:51.234Z,9.21
2023-04-28T01:45:17.656Z,9.20
2023-04-28T01:47:44.131Z,9.14
2023-04-28T01:50:11.393Z,9.13
2023-04-28T01:52:37.859Z,9.15
2023-04-28T01:55:04.766Z,9.19
2023-04-28T01:57:31.201Z,9.15
2023-04-28T01:59:58.950Z,9.12
2023-04-28T02:02:25.447Z,9.11
2023-04-28T02:04:51.981Z,9.12
2023-04-28T02:07:18.548Z,9.14
2023-04-28T02:09:45.026Z,9.16
2023-04-28T02:12:11.425Z,9.14
2023-04-28T02:14:37.772Z,9.15
2023-04-28T02:17:05.440Z,9.13
2023-04-28T02:19:31.939Z,9.11
2023-04-28T02:21:58.332Z,9.11
2023-04-28T02:24:24.758Z,9.11
2023-04-28T02:26:51.113Z,9.11
2023-04-28T02:29:17.568Z,9.07
2023-04-28T02:31:43.987Z,9.06
2023-04-28T02:34:10.569Z,9.05
2023-04-28T02:36:37.222Z,9.06
2023-04-28T02:39:04.125Z,9.06
2023-04-28T02:41:31.094Z,9.04
2023-04-28T02:43:57.489Z,9.05
2023-04-28T02:46:23.939Z,9.07
2023-04-28T02:48:50.504Z,9.09
2023-04-28T02:51:16.894Z,9.09
2023-04-28T02:53:43.284Z,9.12
2023-04-28T02:56:09.683Z,9.09
2023-04-28T02:58:36.104Z,9.08
2023-04-28T03:01:02.478Z,9.07
2023-04-28T03:03:28.996Z,9.06
2023-04-28T03:05:56.972Z,9.04
2023-04-28T03:08:23.691Z,9.01
2023-04-28T03:10:50.092Z,9.01
2023-04-28T03:13:16.534Z,9.01
2023-04-28T03:15:42.912Z,9.02
2023-04-28T03:18:09.328Z,9.00
2023-04-28T03:20:36.531Z,9.02
2023-04-28T03:23:03.015Z,9.00
2023-04-28T03:25:29.501Z,9.03
2023-04-28T03:27:56.033Z,9.04
2023-04-28T03:30:22.573Z,9.05
2023-04-28T03:32:49.064Z,9.02
2023-04-28T03:35:15.570Z,8.98
2023-04-28T03:37:41.995Z,8.93
2023-04-28T03:40:09.192Z,8.94
2023-04-28T03:42:35.747Z,8.96
2023-04-28T03:45:02.184Z,8.97
2023-04-28T03:47:28.660Z,8.98
2023-04-28T03:49:55.159Z,8.98
2023-04-28T03:52:21.550Z,8.99
2023-04-28T03:54:47.978Z,9.01
2023-04-28T03:57:14.429Z,9.02
2023-04-28T03:59:40.982Z,9.02
2023-04-28T04:02:07.497Z,9.02
2023-04-28T04:04:34.275Z,9.02
2023-04-28T04:07:01.370Z,9.04
2023-04-28T04:09:27.823Z,9.02
2023-04-28T04:11:54.263Z,9.02
2023-04-28T04:14:20.724Z,9.01
2023-04-28T04:16:48.361Z,9.00
2023-04-28T04:19:14.722Z,9.00
2023-04-28T04:21:41.149Z,9.02
2023-04-28T04:24:07.857Z,9.03
2023-04-28T04:26:34.262Z,9.02
2023-04-28T04:29:01.195Z,9.02
2023-04-28T04:31:27.900Z,9.01
2023-04-28T04:33:54.449Z,9.03
2023-04-28T04:36:21.105Z,9.07
2023-04-28T04:38:47.481Z,9.07
2023-04-28T04:41:14.110Z,9.07
2023-04-28T04:43:40.509Z,9.08
2023-04-28T04:46:07.335Z,9.08
2023-04-28T04:48:33.821Z,9.06
2023-04-28T04:51:00.149Z,9.08
2023-04-28T04:53:26.596Z,9.11
2023-04-28T04:55:53.146Z,9.13
2023-04-28T04:58:19.647Z,9.13
2023-04-28T05:00:46.184Z,9.15
2023-04-28T05:03:12.842Z,9.15
2023-04-28T05:05:40.148Z,9.17
2023-04-28T05:08:06.736Z,9.15
2023-04-28T05:10:33.232Z,9.19
2023-04-28T05:12:59.679Z,9.23
2023-04-28T05:15:26.204Z,9.27
2023-04-28T05:17:52.593Z,9.30
2023-04-28T05:20:19.216Z,9.33
2023-04-28T05:22:46.170Z,9.37
2023-04-28T05:25:12.632Z,9.38
2023-04-28T05:27:40.745Z,9.38
2023-04-28T05:30:08.543Z,9.38
2023-04-28T05:32:36.312Z,9.40
2023-04-28T05:35:02.922Z,9.43
2023-04-28T05:37:29.480Z,9.45
2023-04-28T05:39:55.913Z,9.48
2023-04-28T05:42:22.336Z,9.45
2023-04-28T05:44:48.700Z,9.47
2023-04-28T05:47:15.034Z,9.49
2023-04-28T05:49:41.405Z,9.49
2023-04-28T05:52:07.847Z,9.49
2023-04-28T05:54:35.075Z,9.53
2023-04-28T05:57:01.994Z,9.54
2023-04-28T05:59:30.589Z,9.54
2023-04-28T06:01:57.060Z,9.54
2023-04-28T06:04:24.112Z,9.45
2023-04-28T06:06:51.043Z,9.46
2023-04-28T06:09:17.776Z,9.50
2023-04-28T06:11:44.312Z,9.55
2023-04-28T06:14:11.269Z,9.60
2023-04-28T06:16:37.704Z,9.61
2023-04-28T06:19:04.488Z,9.66
2023-04-28T06:21:32.311Z,9.67
2023-04-28T06:23:58.777Z,9.72
2023-04-28T06:26:25.498Z,9.77
2023-04-28T06:28:52.211Z,9.78
2023-04-28T06:31:18.754Z,9.81
2023-04-28T06:33:45.247Z,9.88
2023-04-28T06:36:13.973Z,9.92
2023-04-28T06:38:42.797Z,9.95
2023-04-28T06:41:10.492Z,9.99
2023-04-28T06:43:38.351Z,10.03
2023-04-28T06:46:05.051Z,10.08
2023-04-28T06:48:31.579Z,10.13
2023-04-28T06:50:58.064Z,10.16
2023-04-28T06:53:26.867Z,10.20
2023-04-28T06:55:53.456Z,10.27
2023-04-28T06:58:20.830Z,10.33
2023-04-28T07:00:47.328Z,10.40
2023-04-28T07:03:13.891Z,10.48
2023-04-28T07:05:40.576Z,10.55
2023-04-28T07:08:06.946Z,10.59
2023-04-28T07:10:35.896Z,10.64
2023-04-28T07:13:02.380Z,10.67
2023-04-28T07:15:28.915Z,10.70
2023-04-28T07:17:55.512Z,10.75
2023-04-28T07:20:21.983Z,10.82
2023-04-28T07:22:48.345Z,10.92
2023-04-28T07:25:14.938Z,11.02
2023-04-28T07:27:41.698Z,11.09
2023-04-28T07:30:19.084Z,11.17
2023-04-28T07:32:52.874Z,11.24
2023-04-28T07:35:19.374Z,11.31
2023-04-28T07:37:46.289Z,11.42
2023-04-28T07:40:12.818Z,11.56
2023-04-28T07:42:39.312Z,11.62
2023-04-28T07:45:06.419Z,11.66
2023-04-28T07:47:33.031Z,11.74
2023-04-28T07:50:01.014Z,11.81
2023-04-28T07:52:27.462Z,11.98
2023-04-28T07:54:54.042Z,12.12
2023-04-28T07:57:20.774Z,12.24
2023-04-28T07:59:47.384Z,12.34
2023-04-28T08:02:16.858Z,12.37
2023-04-28T08:04:43.414Z,12.35
2023-04-28T08:07:09.878Z,12.30
2023-04-28T08:09:36.431Z,12.29
2023-04-28T08:12:02.954Z,12.31
2023-04-28T08:14:29.536Z,12.36
2023-04-28T08:16:57.075Z,12.34
2023-04-28T08:19:23.627Z,12.34
2023-04-28T08:21:50.098Z,12.28
2023-04-28T08:24:16.880Z,12.31
2023-04-28T08:26:43.472Z,12.26
2023-04-28T08:29:09.826Z,12.21
2023-04-28T08:31:36.280Z,12.19
2023-04-28T08:34:05.526Z,12.14
2023-04-28T08:36:33.271Z,12.10
2023-04-28T08:39:03.170Z,12.09
2023-04-28T08:41:33.048Z,12.18
2023-04-28T08:43:59.578Z,12.35
2023-04-28T08:46:28.192Z,12.48
2023-04-28T08:49:01.646Z,12.65
2023-04-28T08:51:47.798Z,12.77
2023-04-28T08:54:29.523Z,12.91
2023-04-28T08:56:57.110Z,12.99
2023-04-28T08:59:23.958Z,12.99
2023-04-28T09:01:50.971Z,12.98
2023-04-28T09:04:18.864Z,12.98
2023-04-28T09:06:46.520Z,12.97
2023-04-28T09:09:27.286Z,12.95
2023-04-28T09:12:01.121Z,12.88
2023-04-28T09:14:28.883Z,12.88
2023-04-28T09:16:55.755Z,12.88
2023-04-28T09:19:22.439Z,12.87
2023-04-28T09:21:52.203Z,12.79
2023-04-28T09:24:43.525Z,12.76
2023-04-28T09:27:12.234Z,12.68
2023-04-28T09:29:39.320Z,12.66
2023-04-28T09:32:07.741Z,12.65
2023-04-28T09:34:47.341Z,12.69
2023-04-28T09:37:22.429Z,12.70
2023-04-28T09:39:54.133Z,12.73
2023-04-28T09:42:41.168Z,12.75
2023-04-28T09:45:15.393Z,12.81
2023-04-28T09:47:47.137Z,12.86
2023-04-28T09:50:17.102Z,12.86
2023-04-28T09:52:59.706Z,12.89
2023-04-28T09:55:28.248Z,12.98
2023-04-28T09:57:55.257Z,13.00
2023-04-28T10:00:23.086Z,13.03
2023-04-28T10:02:51.537Z,13.06
2023-04-28T10:05:19.598Z,13.07
2023-04-28T10:07:46.610Z,13.14
2023-04-28T10:10:14.804Z,13.16
2023-04-28T10:12:41.943Z,13.12
2023-04-28T10:15:10.220Z,13.15
2023-04-28T10:17:36.998Z,13.10
2023-04-28T10:20:05.265Z,13.07
2023-04-28T10:22:57.419Z,13.12
2023-04-28T10:25:31.376Z,13.14
2023-04-28T10:27:59.597Z,13.15
2023-04-28T10:30:29.890Z,13.22
2023-04-28T10:33:09.388Z,13.26
2023-04-28T10:35:40.788Z,13.32
2023-04-28T10:38:15.031Z,13.38
2023-04-28T10:40:45.308Z,13.44
2023-04-28T10:43:13.781Z,13.50
2023-04-28T10:45:50.070Z,13.53
2023-04-28T10:48:17.120Z,13.55
2023-04-28T10:50:58.438Z,13.64
2023-04-28T10:53:44.944Z,13.66
2023-04-28T10:56:21.627Z,13.76
2023-04-28T10:59:24.944Z,13.90
2023-04-28T11:01:53.575Z,14.03
2023-04-28T11:04:20.193Z,14.09
2023-04-28T11:07:07.120Z,14.17
2023-04-28T11:09:33.479Z,14.16
2023-04-28T11:11:59.944Z,14.15
2023-04-28T11:14:26.357Z,14.07
2023-04-28T11:16:54.521Z,14.03
2023-04-28T11:19:26.503Z,13.95
2023-04-28T11:21:56.011Z,13.94
2023-04-28T11:24:25.560Z,13.98
2023-04-28T11:26:54.828Z,13.99
2023-04-28T11:29:36.550Z,13.98
2023-04-28T11:32:10.752Z,13.87
2023-04-28T11:34:38.000Z,14.01
2023-04-28T11:37:05.951Z,14.17
2023-04-28T11:39:34.812Z,14.23
2023-04-28T11:42:02.908Z,14.28
2023-04-28T11:44:32.034Z,14.23
2023-04-28T11:47:01.446Z,14.19
2023-04-28T11:49:42.251Z,14.22
2023-04-28T11:52:09.763Z,14.24
2023-04-28T11:54:38.067Z,14.23
2023-04-28T11:57:05.626Z,14.05
2023-04-28T11:59:35.773Z,14.05
2023-04-28T12:02:07.286Z,14.09
2023-04-28T12:04:38.944Z,14.02
2023-04-28T12:07:10.552Z,14.05
2023-04-28T12:09:39.175Z,14.10
2023-04-28T12:12:07.972Z,14.29
2023-04-28T12:15:21.016Z,14.31
2023-04-28T12:17:48.284Z,14.24
2023-04-28T12:20:35.237Z,14.28
2023-04-28T12:23:02.652Z,14.18
2023-04-28T12:25:30.469Z,14.19
2023-04-28T12:28:02.691Z,14.24
2023-04-28T12:30:31.589Z,14.29
2023-04-28T12:32:58.442Z,14.25
2023-04-28T12:35:26.752Z,14.25
2023-04-28T12:37:54.472Z,14.27
2023-04-28T12:40:21.377Z,14.33
2023-04-28T12:42:47.853Z,14.25
2023-04-28T12:45:14.353Z,14.23
2023-04-28T12:47:40.896Z,14.28
2023-04-28T12:50:08.023Z,14.30
2023-04-28T12:52:35.723Z,14.43
2023-04-28T12:55:02.872Z,14.38
2023-04-28T12:57:29.605Z,14.46
2023-04-28T12:59:57.107Z,14.49
2023-04-28T13:02:24.016Z,14.47
2023-04-28T13:04:52.136Z,14.44
2023-04-28T13:07:19.192Z,14.59
2023-04-28T13:09:47.240Z,14.76
2023-04-28T13:12:14.640Z,14.94
2023-04-28T13:14:41.087Z,14.87
2023-04-28T13:17:08.084Z,14.86
2023-04-28T13:19:35.066Z,14.72
2023-04-28T13:22:04.944Z,14.65
2023-04-28T13:24:33.471Z,14.69
2023-04-28T13:27:00.232Z,14.63
2023-04-28T13:29:26.711Z,14.64
2023-04-28T13:31:53.191Z,14.73
2023-04-28T13:34:19.714Z,14.72
2023-04-28T13:36:48.087Z,14.66
2023-04-28T13:39:14.929Z,14.69
2023-04-28T13:41:41.696Z,14.69
2023-04-28T13:44:09.434Z,14.67
2023-04-28T13:46:35.940Z,14.57
2023-04-28T13:49:02.390Z,14.51
2023-04-28T13:51:28.867Z,14.54
2023-04-28T13:53:55.348Z,14.41
2023-04-28T13:56:21.894Z,14.33
2023-04-28T13:58:48.398Z,14.36
2023-04-28T14:01:15.043Z,14.28
2023-04-28T14:03:42.059Z,14.18
2023-04-28T14:06:08.603Z,14.19
2023-04-28T14:08:35.148Z,14.19
2023-04-28T14:11:01.589Z,14.14
2023-04-28T14:13:28.275Z,14.16
2023-04-28T14:15:59.020Z,14.12
2023-04-28T14:18:26.550Z,14.09
2023-04-28T14:20:54.495Z,14.08
2023-04-28T14:23:26.921Z,14.08
2023-04-28T14:25:57.979Z,14.05
2023-04-28T14:28:24.543Z,14.12
2023-04-28T14:30:51.123Z,14.14
2023-04-28T14:33:17.697Z,14.13
2023-04-28T14:35:44.327Z,14.13
2023-04-28T14:38:13.224Z,14.00
2023-04-28T14:40:39.659Z,14.01
2023-04-28T14:43:06.432Z,14.00
2023-04-28T14:45:33.076Z,13.97
2023-04-28T14:47:59.883Z,13.94
2023-04-28T14:50:26.651Z,13.97
2023-04-28T14:52:53.236Z,13.99
2023-04-28T14:55:19.815Z,14.01
2023-04-28T14:57:46.846Z,14.01
2023-04-28T15:00:13.869Z,14.03
2023-04-28T15:02:40.514Z,13.98
2023-04-28T15:05:08.764Z,13.95
2023-04-28T15:07:35.656Z,13.89
2023-04-28T15:10:02.057Z,13.89
2023-04-28T15:12:31.987Z,13.89
2023-04-28T15:14:58.424Z,13.81
2023-04-28T15:17:24.929Z,13.81
2023-04-28T15:19:51.585Z,13.78
2023-04-28T15:22:22.963Z,13.73
2023-04-28T15:24:49.605Z,13.68
2023-04-28T15:27:16.188Z,13.69
2023-04-28T15:29:42.629Z,13.70
2023-04-28T15:32:09.443Z,13.69
2023-04-28T15:34:35.826Z,13.62
2023-04-28T15:37:05.401Z,13.62
2023-04-28T15:39:32.095Z,13.62
2023-04-28T15:41:59.553Z,13.56
2023-04-28T15:44:26.735Z,13.56
2023-04-28T15:46:55.263Z,13.49
2023-04-28T15:49:22.231Z,13.42
2023-04-28T15:51:52.101Z,13.38
2023-04-28T15:54:18.792Z,13.38
2023-04-28T15:56:45.316Z,13.40
2023-04-28T15:59:14.823Z,13.37
2023-04-28T16:01:41.469Z,13.35
2023-04-28T16:04:08.113Z,13.35
2023-04-28T16:06:34.663Z,13.34
2023-04-28T16:09:01.867Z,13.38
2023-04-28T16:11:29.796Z,13.38
2023-04-28T16:13:56.257Z,13.34
2023-04-28T16:16:23.173Z,13.36
2023-04-28T16:18:49.575Z,13.38
2023-04-28T16:21:17.292Z,13.38
2023-04-28T16:23:44.348Z,13.42
2023-04-28T16:26:10.823Z,13.46
2023-04-28T16:28:37.257Z,13.43
2023-04-28T16:31:03.850Z,13.39
2023-04-28T16:33:30.552Z,13.41
2023-04-28T16:35:58.196Z,13.42
2023-04-28T16:38:24.650Z,13.43
2023-04-28T16:40:52.172Z,13.45
2023-04-28T16:43:18.816Z,13.51
2023-04-28T16:45:45.551Z,13.50
2023-04-28T16:48:12.080Z,13.50
2023-04-28T16:50:41.011Z,13.52
2023-04-28T16:53:08.132Z,13.46
2023-04-28T16:55:36.529Z,13.44
2023-04-28T16:58:03.877Z,13.39
2023-04-28T17:00:31.024Z,13.34
2023-04-28T17:02:57.489Z,13.35
2023-04-28T17:05:24.051Z,13.29
2023-04-28T17:07:50.698Z,13.25
2023-04-28T17:10:17.207Z,13.22
2023-04-28T17:12:45.318Z,13.15
2023-04-28T17:15:15.181Z,13.07
2023-04-28T17:17:41.624Z,13.03
2023-04-28T17:20:09.212Z,13.02
2023-04-28T17:22:35.607Z,12.96
2023-04-28T17:25:03.249Z,12.90
2023-04-28T17:27:29.615Z,12.85
2023-04-28T17:29:56.253Z,12.81
2023-04-28T17:32:22.667Z,12.80
2023-04-28T17:34:49.144Z,12.73
2023-04-28T17:37:15.567Z,12.64
2023-04-28T17:39:42.036Z,12.60
2023-04-28T17:42:08.595Z,12.55
2023-04-28T17:44:35.241Z,12.50
2023-04-28T17:47:01.719Z,12.46
2023-04-28T17:49:28.294Z,12.40
2023-04-28T17:51:57.029Z,12.34
2023-04-28T17:54:23.449Z,12.33
2023-04-28T17:56:51.115Z,12.29
2023-04-28T17:59:17.963Z,12.27
2023-04-28T18:01:44.496Z,12.27
2023-04-28T18:04:11.244Z,12.25
2023-04-28T18:06:37.748Z,12.19
2023-04-28T18:09:04.262Z,12.17
2023-04-28T18:11:31.016Z,12.10
2023-04-28T18:13:58.743Z,12.08
2023-04-28T18:16:28.928Z,12.04
2023-04-28T18:18:58.191Z,12.05
2023-04-28T18:21:26.921Z,12.03
2023-04-28T18:23:53.345Z,12.00
2023-04-28T18:26:22.146Z,11.97
2023-04-28T18:28:48.517Z,11.97
2023-04-28T18:31:14.985Z,11.98
2023-04-28T18:33:41.465Z,11.98
2023-04-28T18:36:07.956Z,11.93
2023-04-28T18:38:36.381Z,11.92
2023-04-28T18:41:14.138Z,11.91
2023-04-28T18:43:41.795Z,11.91
2023-04-28T18:46:08.653Z,11.85
2023-04-28T18:48:35.412Z,11.81
2023-04-28T18:51:02.122Z,11.78
2023-04-28T18:53:28.616Z,11.74
2023-04-28T18:55:56.695Z,11.72
2023-04-28T18:58:23.198Z,11.68
2023-04-28T19:00:49.783Z,11.64
2023-04-28T19:03:16.384Z,11.64
2023-04-28T19:05:43.539Z,11.60
2023-04-28T19:08:11.862Z,11.60
2023-04-28T19:10:38.694Z,11.54
2023-04-28T19:13:05.073Z,11.53
2023-04-28T19:15:32.981Z,11.52
2023-04-28T19:17:59.470Z,11.54
2023-04-28T19:20:29.016Z,11.52
2023-04-28T19:23:01.382Z,11.45
2023-04-28T19:25:30.539Z,11.40
2023-04-28T19:27:57.049Z,11.40
2023-04-28T19:30:23.492Z,11.41
2023-04-28T19:32:49.950Z,11.36
2023-04-28T19:35:16.552Z,11.36
2023-04-28T19:37:43.263Z,11.34
2023-04-28T19:40:10.568Z,11.34
2023-04-28T19:42:37.188Z,11.29
2023-04-28T19:45:04.089Z,11.29
2023-04-28T19:47:33.999Z,11.28
2023-04-28T19:50:01.410Z,11.24
2023-04-28T19:52:28.175Z,11.20
2023-04-28T19:54:54.821Z,11.18
2023-04-28T19:57:21.944Z,11.19
2023-04-28T19:59:49.671Z,11.15
2023-04-28T20:02:17.117Z,11.14
2023-04-28T20:04:43.874Z,11.13
2023-04-28T20:07:10.953Z,11.11
2023-04-28T20:09:37.988Z,11.09
2023-04-28T20:12:07.524Z,11.05
2023-04-28T20:14:34.825Z,10.99
2023-04-28T20:17:02.549Z,10.94
2023-04-28T20:19:29.270Z,10.96
2023-04-28T20:21:57.735Z,10.95
2023-04-28T20:24:25.675Z,10.91
2023-04-28T20:26:54.610Z,10.85
2023-04-28T20:29:21.403Z,10.81
2023-04-28T20:31:47.939Z,10.80
2023-04-28T20:34:14.598Z,10.78
2023-04-28T20:36:42.768Z,10.75
2023-04-28T20:39:10.952Z,10.70
2023-04-28T20:41:38.062Z,10.69
2023-04-28T20:44:04.460Z,10.66
2023-04-28T20:46:31.229Z,10.65
2023-04-28T20:48:57.645Z,10.63
2023-04-28T20:51:25.951Z,10.59
2023-04-28T20:53:52.359Z,10.57
2023-04-28T20:56:18.743Z,10.57
2023-04-28T20:58:45.203Z,10.55
2023-04-28T21:01:11.917Z,10.54
2023-04-28T21:03:38.333Z,10.53
2023-04-28T21:06:04.910Z,10.54
2023-04-28T21:08:31.425Z,10.52
2023-04-28T21:10:58.013Z,10.48
2023-04-28T21:13:26.950Z,10.47
2023-04-28T21:15:53.314Z,10.46
2023-04-28T21:18:20.425Z,10.40
2023-04-28T21:20:47.176Z,10.37
2023-04-28T21:23:13.583Z,10.38
2023-04-28T21:25:39.963Z,10.37
2023-04-28T21:28:06.370Z,10.34
2023-04-28T21:30:32.791Z,10.31
2023-04-28T21:32:59.289Z,10.27
2023-04-28T21:35:28.789Z,10.25
2023-04-28T21:37:57.950Z,10.22
2023-04-28T21:40:26.881Z,10.23
2023-04-28T21:42:53.445Z,10.24
2023-04-28T21:45:19.829Z,10.23
2023-04-28T21:47:46.522Z,10.18
2023-04-28T21:50:12.969Z,10.08
2023-04-28T21:52:39.350Z,10.06
2023-04-28T21:55:06.428Z,10.02
2023-04-28T21:57:32.926Z,9.97
2023-04-28T21:59:59.377Z,9.93
2023-04-28T22:02:25.890Z,9.88
2023-04-28T22:04:52.394Z,9.85
2023-04-28T22:07:18.858Z,9.81
2023-04-28T22:09:45.474Z,9.72
2023-04-28T22:12:11.881Z,9.69
2023-04-28T22:14:41.374Z,9.72
2023-04-28T22:17:08.191Z,9.67
2023-04-28T22:19:34.613Z,9.63
2023-04-28T22:22:01.059Z,9.59
2023-04-28T22:24:27.873Z,9.54
2023-04-28T22:26:55.060Z,9.55
2023-04-28T22:29:22.046Z,9.56
2023-04-28T22:31:48.697Z,9.51
2023-04-28T22:34:16.375Z,9.52
2023-04-28T22:36:42.878Z,9.50
2023-04-28T22:39:09.269Z,9.50
2023-04-28T22:41:35.689Z,9.49
2023-04-28T22:44:02.069Z,9.49
2023-04-28T22:46:28.770Z,9.50
2023-04-28T22:48:55.706Z,9.54
2023-04-28T22:51:22.327Z,9.56
2023-04-28T22:53:48.871Z,9.55
2023-04-28T22:56:15.969Z,9.54
2023-04-28T22:58:42.468Z,9.47
2023-04-28T23:01:09.260Z,9.44
2023-04-28T23:03:36.027Z,9.43
2023-04-28T23:06:02.542Z,9.44
2023-04-28T23:08:28.967Z,9.42
2023-04-28T23:10:58.402Z,9.44
2023-04-28T23:13:28.153Z,9.48
2023-04-28T23:15:58.350Z,9.44
2023-04-28T23:18:24.718Z,9.40
2023-04-28T23:20:51.152Z,9.42
2023-04-28T23:23:17.572Z,9.43
2023-04-28T23:25:43.997Z,9.44
2023-04-28T23:28:10.433Z,9.45
2023-04-28T23:30:36.934Z,9.46
2023-04-28T23:33:03.683Z,9.47
2023-04-28T23:35:30.238Z,9.48
2023-04-28T23:37:56.615Z,9.47
2023-04-28T23:40:23.105Z,9.46
2023-04-28T23:42:49.483Z,9.43
2023-04-28T23:45:16.022Z,9.44
2023-04-28T23:47:42.834Z,9.42
2023-04-28T23:50:10.033Z,9.43
2023-04-28T23:52:37.230Z,9.45
2023-04-28T23:55:03.905Z,9.41
2023-04-28T23:57:30.332Z,9.40
2023-04-28T23:59:56.779Z,9.43
